createdAt,value
2018-08-13T00:00:28.839Z,21.49
2018-08-13T00:01:00.023Z,21.50
2018-08-13T00:01:31.155Z,21.52
2018-08-13T00:02:02.321Z,21.52
2018-08-13T00:02:33.436Z,21.50
2018-08-13T00:03:04.596Z,21.49
2018-08-13T00:03:35.823Z,21.46
2018-08-13T00:04:07.088Z,21.42
2018-08-13T00:04:38.246Z,21.39
2018-08-13T00:05:09.354Z,21.37
2018-08-13T00:05:40.584Z,21.34
2018-08-13T00:06:11.703Z,21.30
2018-08-13T00:06:42.891Z,21.29
2018-08-13T00:07:14.013Z,21.28
2018-08-13T00:07:45.185Z,21.28
2018-08-13T00:08:16.358Z,21.27
2018-08-13T00:08:47.468Z,21.20
2018-08-13T00:09:18.632Z,21.22
2018-08-13T00:09:49.756Z,21.23
2018-08-13T00:10:20.874Z,21.21
2018-08-13T00:10:51.987Z,21.20
2018-08-13T00:11:23.244Z,21.20
2018-08-13T00:11:54.361Z,21.18
2018-08-13T00:12:25.532Z,21.18
2018-08-13T00:12:56.651Z,21.20
2018-08-13T00:13:27.816Z,21.21
2018-08-13T00:13:58.937Z,21.22
2018-08-13T00:14:30.165Z,21.24
2018-08-13T00:15:01.353Z,21.24
2018-08-13T00:15:32.503Z,21.22
2018-08-13T00:16:03.619Z,21.22
2018-08-13T00:16:34.793Z,21.23
2018-08-13T00:17:05.903Z,21.24
2018-08-13T00:17:37.096Z,21.29
2018-08-13T00:18:08.233Z,21.31
2018-08-13T00:18:39.444Z,21.36
2018-08-13T00:19:10.622Z,21.37
2018-08-13T00:19:41.793Z,21.37
2018-08-13T00:20:12.900Z,21.36
2018-08-13T00:20:44.020Z,21.33
2018-08-13T00:21:15.204Z,21.31
2018-08-13T00:21:46.420Z,21.30
2018-08-13T00:22:17.531Z,21.29
2018-08-13T00:22:48.645Z,21.28
2018-08-13T00:23:19.813Z,21.28
2018-08-13T00:23:51.007Z,21.29
2018-08-13T00:24:22.184Z,21.28
2018-08-13T00:24:53.400Z,21.22
2018-08-13T00:25:24.568Z,21.19
2018-08-13T00:25:55.732Z,21.23
2018-08-13T00:26:26.840Z,21.23
2018-08-13T00:26:57.956Z,21.22
2018-08-13T00:27:29.063Z,21.22
2018-08-13T00:28:00.281Z,21.21
2018-08-13T00:28:31.400Z,21.22
2018-08-13T00:29:02.636Z,21.20
2018-08-13T00:29:33.803Z,21.22
2018-08-13T00:30:05.078Z,21.22
2018-08-13T00:30:36.258Z,21.26
2018-08-13T00:31:07.428Z,21.28
2018-08-13T00:31:38.653Z,21.27
2018-08-13T00:32:09.824Z,21.29
2018-08-13T00:32:41.028Z,21.26
2018-08-13T00:33:12.205Z,21.24
2018-08-13T00:33:43.311Z,21.22
2018-08-13T00:34:14.489Z,21.23
2018-08-13T00:34:45.592Z,21.26
2018-08-13T00:35:16.749Z,21.26
2018-08-13T00:35:47.984Z,21.29
2018-08-13T00:36:19.157Z,21.28
2018-08-13T00:36:50.381Z,21.27
2018-08-13T00:37:21.535Z,21.28
2018-08-13T00:37:52.710Z,21.28
2018-08-13T00:38:23.883Z,21.25
2018-08-13T00:38:55.127Z,21.23
2018-08-13T00:39:26.320Z,21.21
2018-08-13T00:39:57.433Z,21.18
2018-08-13T00:40:28.543Z,21.15
2018-08-13T00:40:59.688Z,21.13
2018-08-13T00:41:30.861Z,21.13
2018-08-13T00:42:02.030Z,21.12
2018-08-13T00:42:34.301Z,21.10
2018-08-13T00:43:05.870Z,21.11
2018-08-13T00:43:37.024Z,21.08
2018-08-13T00:44:08.142Z,21.08
2018-08-13T00:44:39.407Z,21.07
2018-08-13T00:45:10.620Z,21.02
2018-08-13T00:45:41.821Z,21.00
2018-08-13T00:46:12.936Z,20.97
2018-08-13T00:46:44.041Z,20.96
2018-08-13T00:47:15.209Z,20.95
2018-08-13T00:47:46.332Z,20.96
2018-08-13T00:48:17.441Z,20.93
2018-08-13T00:48:48.626Z,20.91
2018-08-13T00:49:19.745Z,20.88
2018-08-13T00:49:50.856Z,20.88
2018-08-13T00:50:22.023Z,20.87
2018-08-13T00:50:53.232Z,20.83
2018-08-13T00:51:24.404Z,20.79
2018-08-13T00:51:55.588Z,20.75
2018-08-13T00:52:26.707Z,20.71
2018-08-13T00:52:57.825Z,20.67
2018-08-13T00:53:29.053Z,20.67
2018-08-13T00:54:00.172Z,20.65
2018-08-13T00:54:31.333Z,20.66
2018-08-13T00:55:02.459Z,20.65
2018-08-13T00:55:33.663Z,20.66
2018-08-13T00:56:04.774Z,20.65
2018-08-13T00:56:35.929Z,20.62
2018-08-13T00:57:07.044Z,20.59
2018-08-13T00:57:38.222Z,20.56
2018-08-13T00:58:09.336Z,20.54
2018-08-13T00:58:40.541Z,20.51
2018-08-13T00:59:11.707Z,20.48
2018-08-13T00:59:42.884Z,20.47
2018-08-13T01:00:13.992Z,20.42
2018-08-13T01:00:45.161Z,20.29
2018-08-13T01:01:16.334Z,20.23
2018-08-13T01:01:47.557Z,20.13
2018-08-13T01:02:18.685Z,20.07
2018-08-13T01:02:49.908Z,20.00
2018-08-13T01:03:21.079Z,19.93
2018-08-13T01:03:52.257Z,19.87
2018-08-13T01:04:23.420Z,19.81
2018-08-13T01:04:54.584Z,19.77
2018-08-13T01:05:25.760Z,19.75
2018-08-13T01:05:56.960Z,19.73
2018-08-13T01:06:28.197Z,19.71
2018-08-13T01:06:59.370Z,19.68
2018-08-13T01:07:30.554Z,19.64
2018-08-13T01:08:01.743Z,19.64
2018-08-13T01:08:32.917Z,19.61
2018-08-13T01:09:04.099Z,19.59
2018-08-13T01:09:35.276Z,19.55
2018-08-13T01:10:06.393Z,19.50
2018-08-13T01:10:37.569Z,19.47
2018-08-13T01:11:08.760Z,19.47
2018-08-13T01:11:39.943Z,19.47
2018-08-13T01:12:11.054Z,19.48
2018-08-13T01:12:42.223Z,19.47
2018-08-13T01:13:13.339Z,19.46
2018-08-13T01:13:44.554Z,19.46
2018-08-13T01:14:15.729Z,19.44
2018-08-13T01:14:46.839Z,19.42
2018-08-13T01:15:18.012Z,19.42
2018-08-13T01:15:49.185Z,19.41
2018-08-13T01:16:20.359Z,19.39
2018-08-13T01:16:51.487Z,19.38
2018-08-13T01:17:22.604Z,19.35
2018-08-13T01:17:53.812Z,19.34
2018-08-13T01:18:24.995Z,19.31
2018-08-13T01:18:56.235Z,19.30
2018-08-13T01:19:27.405Z,19.28
2018-08-13T01:19:58.581Z,19.27
2018-08-13T01:20:29.785Z,19.27
2018-08-13T01:21:00.939Z,19.25
2018-08-13T01:21:32.052Z,19.23
2018-08-13T01:22:03.175Z,19.21
2018-08-13T01:22:34.287Z,19.20
2018-08-13T01:23:05.464Z,19.16
2018-08-13T01:23:36.696Z,19.15
2018-08-13T01:24:07.888Z,19.11
2018-08-13T01:24:39.052Z,19.10
2018-08-13T01:25:10.316Z,19.09
2018-08-13T01:25:41.496Z,19.08
2018-08-13T01:26:12.611Z,19.06
2018-08-13T01:26:43.787Z,19.02
2018-08-13T01:27:14.964Z,19.02
2018-08-13T01:27:46.084Z,19.03
2018-08-13T01:28:17.210Z,19.04
2018-08-13T01:28:48.418Z,19.06
2018-08-13T01:29:19.649Z,19.05
2018-08-13T01:29:50.872Z,19.06
2018-08-13T01:30:22.040Z,19.07
2018-08-13T01:30:53.280Z,19.08
2018-08-13T01:31:24.473Z,19.11
2018-08-13T01:31:55.595Z,19.10
2018-08-13T01:32:26.706Z,19.13
2018-08-13T01:32:57.944Z,19.13
2018-08-13T01:33:29.062Z,19.10
2018-08-13T01:34:00.180Z,19.11
2018-08-13T01:34:31.365Z,19.10
2018-08-13T01:35:02.593Z,19.10
2018-08-13T01:35:33.723Z,19.09
2018-08-13T01:36:04.843Z,19.09
2018-08-13T01:36:35.961Z,19.06
2018-08-13T01:37:07.146Z,19.07
2018-08-13T01:37:38.266Z,19.05
2018-08-13T01:38:09.439Z,19.05
2018-08-13T01:38:40.612Z,19.03
2018-08-13T01:39:11.789Z,19.01
2018-08-13T01:39:42.919Z,18.98
2018-08-13T01:40:14.133Z,18.97
2018-08-13T01:40:45.254Z,18.95
2018-08-13T01:41:16.368Z,18.92
2018-08-13T01:41:47.479Z,18.91
2018-08-13T01:42:18.708Z,18.91
2018-08-13T01:42:49.827Z,18.90
2018-08-13T01:43:21.006Z,18.87
2018-08-13T01:43:52.126Z,18.80
2018-08-13T01:44:23.324Z,18.77
2018-08-13T01:44:54.444Z,18.78
2018-08-13T01:45:25.656Z,18.79
2018-08-13T01:45:56.774Z,18.77
2018-08-13T01:46:28.012Z,18.77
2018-08-13T01:46:59.135Z,18.76
2018-08-13T01:47:30.364Z,18.77
2018-08-13T01:48:01.497Z,18.76
2018-08-13T01:48:32.661Z,18.76
2018-08-13T01:49:03.896Z,18.76
2018-08-13T01:49:35.183Z,18.76
2018-08-13T01:50:06.367Z,18.79
2018-08-13T01:50:37.536Z,18.82
2018-08-13T01:51:08.709Z,18.87
2018-08-13T01:51:39.877Z,18.90
2018-08-13T01:52:11.062Z,18.92
2018-08-13T01:52:42.176Z,18.92
2018-08-13T01:53:13.285Z,18.93
2018-08-13T01:53:44.455Z,18.92
2018-08-13T01:54:15.677Z,18.89
2018-08-13T01:54:46.952Z,18.86
2018-08-13T01:55:18.181Z,18.84
2018-08-13T01:55:49.336Z,18.82
2018-08-13T01:56:20.452Z,18.81
2018-08-13T01:56:51.604Z,18.78
2018-08-13T01:57:22.755Z,18.75
2018-08-13T01:57:53.868Z,18.72
2018-08-13T01:58:24.985Z,18.68
2018-08-13T01:58:56.110Z,18.66
2018-08-13T01:59:27.280Z,18.66
2018-08-13T01:59:58.414Z,18.62
2018-08-13T02:00:29.596Z,18.56
2018-08-13T02:01:00.710Z,18.54
2018-08-13T02:01:31.923Z,18.52
2018-08-13T02:02:03.032Z,18.50
2018-08-13T02:02:34.152Z,18.46
2018-08-13T02:03:05.324Z,18.41
2018-08-13T02:03:36.548Z,18.40
2018-08-13T02:04:07.674Z,18.39
2018-08-13T02:04:38.905Z,18.37
2018-08-13T02:05:10.040Z,18.35
2018-08-13T02:05:41.215Z,18.36
2018-08-13T02:06:12.332Z,18.36
2018-08-13T02:06:43.524Z,18.33
2018-08-13T02:07:14.753Z,18.32
2018-08-13T02:07:45.872Z,18.31
2018-08-13T02:08:17.039Z,18.29
2018-08-13T02:08:48.209Z,18.30
2018-08-13T02:09:19.381Z,18.29
2018-08-13T02:09:50.564Z,18.28
2018-08-13T02:10:21.737Z,18.27
2018-08-13T02:10:52.852Z,18.25
2018-08-13T02:11:24.023Z,18.25
2018-08-13T02:11:55.172Z,18.23
2018-08-13T02:12:26.338Z,18.17
2018-08-13T02:12:57.456Z,18.12
2018-08-13T02:13:28.673Z,18.09
2018-08-13T02:13:59.791Z,18.07
2018-08-13T02:14:30.964Z,18.04
2018-08-13T02:15:02.145Z,18.00
2018-08-13T02:15:33.262Z,17.94
2018-08-13T02:16:04.441Z,17.93
2018-08-13T02:16:35.636Z,17.91
2018-08-13T02:17:06.799Z,17.89
2018-08-13T02:17:37.969Z,17.90
2018-08-13T02:18:09.142Z,17.88
2018-08-13T02:18:40.267Z,17.87
2018-08-13T02:19:11.382Z,17.82
2018-08-13T02:19:42.552Z,17.81
2018-08-13T02:20:13.659Z,17.81
2018-08-13T02:20:44.840Z,17.80
2018-08-13T02:21:16.056Z,17.79
2018-08-13T02:21:47.181Z,17.82
2018-08-13T02:22:18.332Z,17.84
2018-08-13T02:22:49.497Z,17.85
2018-08-13T02:23:20.614Z,17.88
2018-08-13T02:23:51.780Z,17.86
2018-08-13T02:24:22.948Z,17.89
2018-08-13T02:24:54.124Z,17.90
2018-08-13T02:25:25.303Z,17.90
2018-08-13T02:25:56.476Z,17.89
2018-08-13T02:26:27.584Z,17.91
2018-08-13T02:26:58.746Z,17.91
2018-08-13T02:27:29.903Z,17.91
2018-08-13T02:28:01.018Z,17.92
2018-08-13T02:28:32.193Z,17.91
2018-08-13T02:29:03.361Z,17.92
2018-08-13T02:29:34.535Z,17.93
2018-08-13T02:30:05.715Z,17.91
2018-08-13T02:30:36.840Z,17.88
2018-08-13T02:31:08.021Z,17.83
2018-08-13T02:31:39.139Z,17.79
2018-08-13T02:32:10.260Z,17.74
2018-08-13T02:32:41.460Z,17.71
2018-08-13T02:33:12.580Z,17.68
2018-08-13T02:33:43.701Z,17.66
2018-08-13T02:34:14.811Z,17.65
2018-08-13T02:34:46.005Z,17.61
2018-08-13T02:35:17.132Z,17.59
2018-08-13T02:35:48.252Z,17.57
2018-08-13T02:36:19.413Z,17.53
2018-08-13T02:36:50.588Z,17.50
2018-08-13T02:37:21.719Z,17.50
2018-08-13T02:37:52.918Z,17.50
2018-08-13T02:38:24.023Z,17.48
2018-08-13T02:38:55.133Z,17.47
2018-08-13T02:39:26.252Z,17.46
2018-08-13T02:39:57.364Z,17.46
2018-08-13T02:40:28.521Z,17.46
2018-08-13T02:40:59.694Z,17.47
2018-08-13T02:41:30.812Z,17.48
2018-08-13T02:42:02.038Z,17.49
2018-08-13T02:42:33.160Z,17.53
2018-08-13T02:43:04.356Z,17.54
2018-08-13T02:43:35.528Z,17.56
2018-08-13T02:44:06.650Z,17.58
2018-08-13T02:44:37.825Z,17.62
2018-08-13T02:45:08.950Z,17.63
2018-08-13T02:45:40.060Z,17.63
2018-08-13T02:46:11.224Z,17.63
2018-08-13T02:46:42.401Z,17.64
2018-08-13T02:47:13.570Z,17.65
2018-08-13T02:47:44.684Z,17.64
2018-08-13T02:48:15.827Z,17.63
2018-08-13T02:48:46.991Z,17.62
2018-08-13T02:49:18.215Z,17.63
2018-08-13T02:49:49.396Z,17.63
2018-08-13T02:50:20.517Z,17.61
2018-08-13T02:50:51.620Z,17.60
2018-08-13T02:51:22.785Z,17.58
2018-08-13T02:51:53.899Z,17.55
2018-08-13T02:52:25.053Z,17.54
2018-08-13T02:52:56.320Z,17.54
2018-08-13T02:53:27.490Z,17.52
2018-08-13T02:53:58.661Z,17.50
2018-08-13T02:54:29.890Z,17.49
2018-08-13T02:55:01.064Z,17.48
2018-08-13T02:55:32.225Z,17.47
2018-08-13T02:56:03.456Z,17.45
2018-08-13T02:56:34.657Z,17.46
2018-08-13T02:57:05.821Z,17.48
2018-08-13T02:57:36.944Z,17.48
2018-08-13T02:58:08.094Z,17.47
2018-08-13T02:58:39.256Z,17.47
2018-08-13T02:59:10.379Z,17.46
2018-08-13T02:59:41.586Z,17.47
2018-08-13T03:00:12.757Z,17.48
2018-08-13T03:00:43.925Z,17.49
2018-08-13T03:01:15.096Z,17.50
2018-08-13T03:01:46.328Z,17.51
2018-08-13T03:02:17.490Z,17.51
2018-08-13T03:02:48.661Z,17.54
2018-08-13T03:03:19.832Z,17.57
2018-08-13T03:03:50.951Z,17.61
2018-08-13T03:04:22.188Z,17.61
2018-08-13T03:04:53.418Z,17.64
2018-08-13T03:05:24.612Z,17.67
2018-08-13T03:05:55.894Z,17.68
2018-08-13T03:06:27.023Z,17.69
2018-08-13T03:06:58.196Z,17.67
2018-08-13T03:07:29.317Z,17.68
2018-08-13T03:08:00.488Z,17.70
2018-08-13T03:08:31.635Z,17.67
2018-08-13T03:09:02.784Z,17.68
2018-08-13T03:09:33.918Z,17.69
2018-08-13T03:10:05.037Z,17.69
2018-08-13T03:10:36.153Z,17.69
2018-08-13T03:11:07.307Z,17.67
2018-08-13T03:11:38.479Z,17.64
2018-08-13T03:12:09.655Z,17.62
2018-08-13T03:12:40.917Z,17.60
2018-08-13T03:13:12.093Z,17.56
2018-08-13T03:13:43.305Z,17.55
2018-08-13T03:14:14.425Z,17.55
2018-08-13T03:14:45.649Z,17.53
2018-08-13T03:15:16.773Z,17.53
2018-08-13T03:15:47.949Z,17.54
2018-08-13T03:16:19.116Z,17.49
2018-08-13T03:16:50.233Z,17.54
2018-08-13T03:17:21.418Z,17.57
2018-08-13T03:17:52.566Z,17.60
2018-08-13T03:18:23.749Z,17.59
2018-08-13T03:18:54.855Z,17.59
2018-08-13T03:19:25.970Z,17.57
2018-08-13T03:19:57.206Z,17.54
2018-08-13T03:20:28.329Z,17.53
2018-08-13T03:20:59.493Z,17.51
2018-08-13T03:21:30.617Z,17.53
2018-08-13T03:22:01.784Z,17.50
2018-08-13T03:22:32.947Z,17.50
2018-08-13T03:23:04.061Z,17.50
2018-08-13T03:23:35.171Z,17.50
2018-08-13T03:24:06.284Z,17.49
2018-08-13T03:24:37.463Z,17.48
2018-08-13T03:25:08.637Z,17.46
2018-08-13T03:25:39.771Z,17.48
2018-08-13T03:26:10.878Z,17.49
2018-08-13T03:26:41.991Z,17.49
2018-08-13T03:27:13.160Z,17.50
2018-08-13T03:27:44.401Z,17.47
2018-08-13T03:28:15.571Z,17.43
2018-08-13T03:28:46.757Z,17.40
2018-08-13T03:29:17.873Z,17.39
2018-08-13T03:29:49.043Z,17.40
2018-08-13T03:30:20.156Z,17.39
2018-08-13T03:30:51.272Z,17.40
2018-08-13T03:31:22.385Z,17.38
2018-08-13T03:31:53.552Z,17.37
2018-08-13T03:32:24.654Z,17.34
2018-08-13T03:32:55.919Z,17.35
2018-08-13T03:33:27.049Z,17.34
2018-08-13T03:33:58.285Z,17.34
2018-08-13T03:34:29.410Z,17.33
2018-08-13T03:35:00.579Z,17.33
2018-08-13T03:35:31.740Z,17.32
2018-08-13T03:36:02.920Z,17.32
2018-08-13T03:36:34.044Z,17.35
2018-08-13T03:37:05.160Z,17.39
2018-08-13T03:37:36.334Z,17.41
2018-08-13T03:38:07.484Z,17.45
2018-08-13T03:38:38.717Z,17.50
2018-08-13T03:39:09.953Z,17.57
2018-08-13T03:39:41.169Z,17.61
2018-08-13T03:40:12.329Z,17.66
2018-08-13T03:40:43.496Z,17.70
2018-08-13T03:41:14.607Z,17.74
2018-08-13T03:41:45.775Z,17.82
2018-08-13T03:42:16.890Z,17.90
2018-08-13T03:42:47.998Z,17.91
2018-08-13T03:43:19.101Z,17.94
2018-08-13T03:43:50.272Z,17.94
2018-08-13T03:44:21.378Z,17.94
2018-08-13T03:44:52.523Z,17.96
2018-08-13T03:45:23.679Z,17.96
2018-08-13T03:45:54.799Z,18.01
2018-08-13T03:46:25.911Z,18.07
2018-08-13T03:46:57.077Z,18.09
2018-08-13T03:47:28.202Z,18.11
2018-08-13T03:47:59.321Z,18.14
2018-08-13T03:48:30.585Z,18.19
2018-08-13T03:49:01.789Z,18.25
2018-08-13T03:49:32.899Z,18.32
2018-08-13T03:50:04.060Z,18.44
2018-08-13T03:50:35.246Z,18.55
2018-08-13T03:51:06.456Z,18.56
2018-08-13T03:51:37.579Z,18.56
2018-08-13T03:52:08.699Z,18.60
2018-08-13T03:52:39.875Z,18.70
2018-08-13T03:53:10.980Z,18.78
2018-08-13T03:53:42.127Z,18.89
2018-08-13T03:54:13.246Z,18.95
2018-08-13T03:54:44.363Z,19.00
2018-08-13T03:55:15.484Z,19.00
2018-08-13T03:55:46.653Z,19.05
2018-08-13T03:56:17.918Z,19.07
2018-08-13T03:56:49.085Z,19.07
2018-08-13T03:57:20.312Z,19.10
2018-08-13T03:57:51.485Z,19.17
2018-08-13T03:58:22.662Z,19.27
2018-08-13T03:58:53.872Z,19.37
2018-08-13T03:59:25.005Z,19.52
2018-08-13T03:59:56.121Z,19.64
2018-08-13T04:00:27.291Z,19.66
2018-08-13T04:00:58.836Z,19.69
2018-08-13T04:01:30.048Z,19.72
2018-08-13T04:02:01.172Z,19.79
2018-08-13T04:02:32.287Z,19.86
2018-08-13T04:03:03.452Z,20.04
2018-08-13T04:03:34.571Z,20.17
2018-08-13T04:04:05.725Z,20.31
2018-08-13T04:04:36.849Z,20.45
2018-08-13T04:05:08.076Z,20.51
2018-08-13T04:05:39.197Z,20.55
2018-08-13T04:06:10.311Z,20.61
2018-08-13T04:06:41.476Z,20.66
2018-08-13T04:07:12.648Z,20.73
2018-08-13T04:07:43.836Z,20.82
2018-08-13T04:08:14.951Z,20.89
2018-08-13T04:08:46.122Z,20.94
2018-08-13T04:09:17.316Z,20.88
2018-08-13T04:09:48.498Z,20.89
2018-08-13T04:10:19.779Z,20.80
2018-08-13T04:10:50.900Z,20.67
2018-08-13T04:11:22.064Z,20.47
2018-08-13T04:11:53.236Z,20.29
2018-08-13T04:12:24.366Z,20.08
2018-08-13T04:12:55.552Z,19.94
2018-08-13T04:13:26.690Z,19.87
2018-08-13T04:13:57.807Z,19.88
2018-08-13T04:14:28.927Z,19.98
2018-08-13T04:15:00.153Z,20.14
2018-08-13T04:15:31.342Z,20.34
2018-08-13T04:16:02.460Z,20.57
2018-08-13T04:16:33.608Z,20.78
2018-08-13T04:17:04.727Z,20.97
2018-08-13T04:17:35.906Z,21.13
2018-08-13T04:18:07.020Z,21.29
2018-08-13T04:18:38.200Z,21.44
2018-08-13T04:19:09.318Z,21.48
2018-08-13T04:19:40.431Z,21.50
2018-08-13T04:20:11.545Z,21.48
2018-08-13T04:20:42.718Z,21.39
2018-08-13T04:21:13.936Z,21.09
2018-08-13T04:21:45.117Z,20.87
2018-08-13T04:22:16.281Z,20.73
2018-08-13T04:22:47.464Z,20.65
2018-08-13T04:23:18.594Z,20.54
2018-08-13T04:23:49.717Z,20.55
2018-08-13T04:24:20.870Z,20.59
2018-08-13T04:24:52.085Z,20.74
2018-08-13T04:25:23.252Z,20.96
2018-08-13T04:25:54.481Z,21.21
2018-08-13T04:26:25.610Z,21.46
2018-08-13T04:26:56.771Z,21.74
2018-08-13T04:27:27.944Z,21.90
2018-08-13T04:27:59.062Z,22.18
2018-08-13T04:28:30.320Z,22.42
2018-08-13T04:29:01.493Z,22.60
2018-08-13T04:29:32.664Z,22.82
2018-08-13T04:30:03.791Z,23.07
2018-08-13T04:30:34.911Z,23.20
2018-08-13T04:31:06.021Z,23.45
2018-08-13T04:31:37.193Z,23.65
2018-08-13T04:32:08.312Z,23.83
2018-08-13T04:32:39.432Z,23.99
2018-08-13T04:33:10.651Z,24.15
2018-08-13T04:33:41.800Z,24.18
2018-08-13T04:34:12.963Z,24.24
2018-08-13T04:34:44.071Z,24.17
2018-08-13T04:35:15.234Z,24.24
2018-08-13T04:35:46.420Z,24.23
2018-08-13T04:36:17.600Z,24.32
2018-08-13T04:36:48.772Z,24.27
2018-08-13T04:37:19.876Z,24.45
2018-08-13T04:37:50.983Z,24.58
2018-08-13T04:38:22.152Z,24.51
2018-08-13T04:38:53.417Z,24.71
2018-08-13T04:39:24.562Z,24.87
2018-08-13T04:39:55.685Z,24.96
2018-08-13T04:40:26.853Z,25.08
2018-08-13T04:40:57.963Z,25.25
2018-08-13T04:41:29.128Z,25.25
2018-08-13T04:42:00.252Z,25.40
2018-08-13T04:42:31.414Z,25.45
2018-08-13T04:43:02.645Z,25.55
2018-08-13T04:43:33.825Z,25.63
2018-08-13T04:44:05.044Z,25.54
2018-08-13T04:44:36.220Z,25.51
2018-08-13T04:45:07.436Z,25.58
2018-08-13T04:45:38.555Z,25.66
2018-08-13T04:46:09.672Z,25.78
2018-08-13T04:46:40.844Z,25.79
2018-08-13T04:47:12.023Z,25.82
2018-08-13T04:47:43.195Z,25.91
2018-08-13T04:48:14.368Z,25.86
2018-08-13T04:48:45.531Z,25.97
2018-08-13T04:49:16.768Z,25.91
2018-08-13T04:49:47.939Z,25.95
2018-08-13T04:50:19.119Z,25.98
2018-08-13T04:50:50.287Z,26.10
2018-08-13T04:51:21.404Z,26.30
2018-08-13T04:51:52.580Z,26.28
2018-08-13T04:52:23.770Z,26.53
2018-08-13T04:52:54.882Z,26.62
2018-08-13T04:53:26.051Z,26.66
2018-08-13T04:53:57.292Z,26.86
2018-08-13T04:54:28.508Z,26.98
2018-08-13T04:54:59.672Z,27.19
2018-08-13T04:55:30.832Z,27.29
2018-08-13T04:56:01.960Z,27.34
2018-08-13T04:56:33.200Z,27.30
2018-08-13T04:57:04.323Z,27.39
2018-08-13T04:57:35.445Z,27.46
2018-08-13T04:58:06.560Z,27.65
2018-08-13T04:58:37.677Z,27.80
2018-08-13T04:59:08.796Z,27.77
2018-08-13T04:59:39.916Z,27.92
2018-08-13T05:00:11.125Z,27.89
2018-08-13T05:00:42.289Z,27.90
2018-08-13T05:01:13.419Z,28.05
2018-08-13T05:01:44.548Z,28.08
2018-08-13T05:02:15.792Z,28.22
2018-08-13T05:02:46.907Z,28.25
2018-08-13T05:03:18.478Z,28.36
2018-08-13T05:03:49.648Z,28.46
2018-08-13T05:04:20.877Z,28.43
2018-08-13T05:04:52.009Z,28.49
2018-08-13T05:05:23.131Z,28.62
2018-08-13T05:05:54.337Z,28.57
2018-08-13T05:06:25.479Z,28.66
2018-08-13T05:06:56.602Z,28.70
2018-08-13T05:07:27.797Z,28.77
2018-08-13T05:07:58.930Z,28.63
2018-08-13T05:08:30.052Z,28.58
2018-08-13T05:09:01.229Z,28.67
2018-08-13T05:09:32.452Z,28.66
2018-08-13T05:10:03.613Z,28.68
2018-08-13T05:10:34.794Z,28.80
2018-08-13T05:11:05.974Z,28.73
2018-08-13T05:11:37.092Z,28.58
2018-08-13T05:12:08.321Z,28.44
2018-08-13T05:12:39.507Z,28.53
2018-08-13T05:13:10.632Z,28.61
2018-08-13T05:13:41.804Z,28.61
2018-08-13T05:14:12.999Z,28.77
2018-08-13T05:14:44.215Z,28.85
2018-08-13T05:15:15.343Z,28.91
2018-08-13T05:15:46.573Z,28.94
2018-08-13T05:16:17.756Z,29.03
2018-08-13T05:16:48.903Z,29.15
2018-08-13T05:17:20.023Z,28.98
2018-08-13T05:17:51.202Z,28.92
2018-08-13T05:18:22.332Z,29.05
2018-08-13T05:18:53.454Z,29.22
2018-08-13T05:19:24.571Z,29.30
2018-08-13T05:19:55.699Z,29.24
2018-08-13T05:20:26.852Z,29.06
2018-08-13T05:20:58.033Z,29.04
2018-08-13T05:21:29.220Z,29.09
2018-08-13T05:22:00.379Z,29.07
2018-08-13T05:22:31.556Z,29.05
2018-08-13T05:23:02.721Z,29.17
2018-08-13T05:23:33.910Z,29.16
2018-08-13T05:24:05.081Z,29.23
2018-08-13T05:24:36.206Z,29.06
2018-08-13T05:25:07.345Z,28.90
2018-08-13T05:25:38.520Z,29.02
2018-08-13T05:26:09.715Z,29.11
2018-08-13T05:26:40.913Z,29.21
2018-08-13T05:27:12.093Z,29.38
2018-08-13T05:27:43.200Z,29.46
2018-08-13T05:28:14.373Z,29.49
2018-08-13T05:28:45.586Z,29.48
2018-08-13T05:29:16.711Z,29.35
2018-08-13T05:29:47.880Z,29.34
2018-08-13T05:30:18.997Z,29.16
2018-08-13T05:30:50.256Z,29.37
2018-08-13T05:31:21.476Z,29.40
2018-08-13T05:31:52.614Z,29.59
2018-08-13T05:32:23.778Z,29.64
2018-08-13T05:32:54.935Z,29.67
2018-08-13T05:33:26.057Z,29.73
2018-08-13T05:33:57.155Z,29.63
2018-08-13T05:34:28.384Z,29.66
2018-08-13T05:34:59.497Z,29.50
2018-08-13T05:35:30.617Z,29.27
2018-08-13T05:36:01.744Z,29.18
2018-08-13T05:36:32.928Z,29.03
2018-08-13T05:37:04.103Z,28.95
2018-08-13T05:37:35.287Z,28.97
2018-08-13T05:38:06.484Z,29.06
2018-08-13T05:38:37.582Z,29.08
2018-08-13T05:39:08.772Z,28.91
2018-08-13T05:39:40.013Z,28.82
2018-08-13T05:40:11.148Z,28.81
2018-08-13T05:40:42.277Z,28.94
2018-08-13T05:41:13.505Z,29.03
2018-08-13T05:41:44.623Z,29.04
2018-08-13T05:42:15.741Z,28.91
2018-08-13T05:42:46.973Z,28.86
2018-08-13T05:43:18.104Z,28.82
2018-08-13T05:43:49.384Z,28.57
2018-08-13T05:44:20.627Z,28.37
2018-08-13T05:44:51.816Z,28.22
2018-08-13T05:45:22.988Z,27.99
2018-08-13T05:45:54.145Z,27.83
2018-08-13T05:46:25.388Z,27.63
2018-08-13T05:46:56.508Z,27.50
2018-08-13T05:47:27.676Z,27.28
2018-08-13T05:47:58.911Z,27.10
2018-08-13T05:48:30.088Z,26.71
2018-08-13T05:49:01.280Z,26.48
2018-08-13T05:49:32.500Z,26.39
2018-08-13T05:50:03.745Z,26.34
2018-08-13T05:50:34.940Z,26.33
2018-08-13T05:51:06.060Z,26.32
2018-08-13T05:51:37.235Z,26.26
2018-08-13T05:52:08.411Z,26.29
2018-08-13T05:52:39.528Z,26.35
2018-08-13T05:53:10.748Z,26.38
2018-08-13T05:53:41.864Z,26.38
2018-08-13T05:54:13.044Z,26.39
2018-08-13T05:54:44.229Z,26.40
2018-08-13T05:55:15.347Z,26.39
2018-08-13T05:55:46.466Z,26.42
2018-08-13T05:56:17.633Z,26.46
2018-08-13T05:56:48.783Z,26.37
2018-08-13T05:57:19.900Z,26.43
2018-08-13T05:57:51.012Z,26.44
2018-08-13T05:58:22.128Z,26.46
2018-08-13T05:58:53.348Z,26.44
2018-08-13T05:59:24.516Z,26.36
2018-08-13T05:59:55.688Z,26.27
2018-08-13T06:00:26.928Z,26.30
2018-08-13T06:00:58.060Z,26.35
2018-08-13T06:01:29.207Z,26.33
2018-08-13T06:02:00.377Z,26.32
2018-08-13T06:02:31.600Z,26.26
2018-08-13T06:03:02.733Z,26.27
2018-08-13T06:03:33.867Z,26.25
2018-08-13T06:04:04.991Z,26.18
2018-08-13T06:04:36.360Z,26.18
2018-08-13T06:05:07.512Z,26.09
2018-08-13T06:05:38.684Z,26.02
2018-08-13T06:06:09.800Z,25.99
2018-08-13T06:06:40.923Z,25.93
2018-08-13T06:07:12.124Z,25.97
2018-08-13T06:07:43.258Z,26.02
2018-08-13T06:08:14.497Z,26.06
2018-08-13T06:08:45.620Z,26.05
2018-08-13T06:09:16.739Z,26.12
2018-08-13T06:09:47.924Z,26.09
2018-08-13T06:10:19.100Z,26.06
2018-08-13T06:10:50.419Z,26.05
2018-08-13T06:11:21.771Z,26.06
2018-08-13T06:11:52.920Z,26.14
2018-08-13T06:12:24.108Z,26.04
2018-08-13T06:12:55.348Z,25.91
2018-08-13T06:13:26.476Z,25.76
2018-08-13T06:13:57.701Z,25.64
2018-08-13T06:14:28.825Z,25.59
2018-08-13T06:14:59.942Z,25.55
2018-08-13T06:15:31.053Z,25.60
2018-08-13T06:16:02.261Z,25.73
2018-08-13T06:16:33.464Z,25.81
2018-08-13T06:17:04.577Z,25.94
2018-08-13T06:17:35.709Z,25.98
2018-08-13T06:18:06.845Z,25.98
2018-08-13T06:18:37.968Z,25.96
2018-08-13T06:19:09.084Z,25.99
2018-08-13T06:19:40.269Z,25.99
2018-08-13T06:20:11.502Z,25.96
2018-08-13T06:20:42.627Z,26.00
2018-08-13T06:21:13.806Z,26.07
2018-08-13T06:21:45.045Z,26.16
2018-08-13T06:22:16.280Z,26.16
2018-08-13T06:22:47.437Z,26.23
2018-08-13T06:23:18.572Z,26.25
2018-08-13T06:23:49.751Z,26.25
2018-08-13T06:24:21.021Z,26.08
2018-08-13T06:24:52.132Z,25.94
2018-08-13T06:25:23.249Z,25.93
2018-08-13T06:25:54.433Z,25.89
2018-08-13T06:26:25.557Z,25.90
2018-08-13T06:26:56.738Z,25.92
2018-08-13T06:27:27.884Z,25.97
2018-08-13T06:27:59.048Z,26.03
2018-08-13T06:28:30.227Z,26.01
2018-08-13T06:29:01.424Z,25.99
2018-08-13T06:29:32.644Z,26.01
2018-08-13T06:30:03.783Z,26.05
2018-08-13T06:30:34.919Z,26.08
2018-08-13T06:31:06.126Z,26.14
2018-08-13T06:31:37.244Z,26.15
2018-08-13T06:32:08.448Z,26.17
2018-08-13T06:32:39.760Z,26.13
2018-08-13T06:33:10.944Z,26.13
2018-08-13T06:33:42.142Z,26.15
2018-08-13T06:34:13.267Z,26.26
2018-08-13T06:34:44.427Z,26.24
2018-08-13T06:35:15.656Z,26.25
2018-08-13T06:35:46.849Z,26.28
2018-08-13T06:36:18.085Z,26.31
2018-08-13T06:36:49.276Z,26.32
2018-08-13T06:37:20.470Z,26.24
2018-08-13T06:37:51.609Z,26.16
2018-08-13T06:38:22.748Z,26.12
2018-08-13T06:38:53.924Z,26.05
2018-08-13T06:39:25.104Z,26.05
2018-08-13T06:39:56.264Z,26.04
2018-08-13T06:40:27.380Z,26.12
2018-08-13T06:40:58.504Z,26.08
2018-08-13T06:41:29.704Z,26.05